Time;durP1;ratioP1;P1;durP2;ratioP2;P2;SDS_P1;SDS_P2;PMS_P1;PMS_P2;Temp;Humidity;BMP_temperature;BMP_pressure;BME280_temperature;BME280_humidity;BME280_pressure;Samples;Min_cycle;Max_cycle;Signal;HPM_P1;HPM_P2
2022/04/09 00:02:03;;;;;;;;;;;;;;;12.15;55.93;98787.56;5006742;28;19925;-81
2022/04/09 00:04:29;;;;;;;;;;;;;;;12.36;55.16;98796.50;5004637;28;20383;-82
2022/04/09 00:06:54;;;;;;;;;;;;;;;11.98;55.32;98809.31;4989576;28;20404;-82
2022/04/09 00:09:19;;;;;;;;;;;;;;;11.77;56.40;98813.53;4988695;28;20324;-82
2022/04/09 00:11:45;;;;;;;;;;;;;;;11.71;56.39;98816.38;4988950;28;19917;-81
2022/04/09 00:14:10;;;;;;;;;;;;;;;11.14;57.76;98828.78;5004311;28;19925;-83
2022/04/09 00:16:35;;;;;;;;;;;;;;;10.87;59.88;98827.84;5016759;28;19932;-82
2022/04/09 00:19:01;;;;;;;;;;;;;;;11.25;58.94;98831.09;5008608;28;19918;-84
2022/04/09 00:21:28;;;;;;;;;;;;;;;11.28;59.35;98818.66;5018204;28;19957;-83
2022/04/09 00:23:53;;;;;;;;;;;;;;;11.45;58.80;98826.03;5020611;28;19977;-83
2022/04/09 00:26:18;;;;;;;;;;;;;;;11.55;58.42;98818.66;4975771;28;19922;-81
2022/04/09 00:28:44;;;;;;;;;;;;;;;11.69;57.46;98820.84;4993892;28;19937;-81
2022/04/09 00:31:09;;;;;;;;;;;;;;;11.62;56.37;98825.47;5007905;28;19925;-84
2022/04/09 00:33:34;;;;;;;;;;;;;;;11.53;56.69;98828.41;5008323;28;19917;-83
2022/04/09 00:36:00;;;;;;;;;;;;;;;11.50;56.90;98825.88;5005960;28;19971;-83
2022/04/09 00:38:26;;;;;;;;;;;;;;;11.43;57.61;98811.13;4999365;28;20490;-83
2022/04/09 00:40:51;;;;;;;;;;;;;;;11.38;57.99;98829.75;5016372;28;19983;-83
2022/04/09 00:43:16;;;;;;;;;;;;;;;11.35;57.63;98829.88;4988527;28;19922;-83
2022/04/09 00:45:42;;;;;;;;;;;;;;;11.27;57.28;98824.81;4987984;28;19926;-83
2022/04/09 00:48:10;;;;;;;;;;;;;;;11.00;57.80;98838.88;4988564;28;19926;-83
2022/04/09 00:50:35;;;;;;;;;;;;;;;10.75;57.35;98836.97;4990970;28;19929;-82
2022/04/09 00:53:01;;;;;;;;;;;;;;;10.48;59.22;98839.50;5008480;28;19921;-83
2022/04/09 00:58:14;;;;;;;;;;;;;;;10.21;60.14;98827.94;4995976;28;20442;-84
2022/04/09 01:00:40;;;;;;;;;;;;;;;10.18;60.23;98820.13;4998054;28;19947;-83
2022/04/09 01:03:06;;;;;;;;;;;;;;;10.24;61.04;98809.41;5007998;28;19976;-84
2022/04/09 01:05:31;;;;;;;;;;;;;;;10.16;60.67;98827.19;5008647;28;19922;-83
2022/04/09 01:07:57;;;;;;;;;;;;;;;10.13;60.63;98833.44;5001303;28;19930;-83
2022/04/09 01:10:22;;;;;;;;;;;;;;;10.02;60.81;98836.34;4995917;28;19926;-84
2022/04/09 01:12:48;;;;;;;;;;;;;;;9.97;60.99;98840.00;4993815;28;19936;-83
2022/04/09 01:15:13;;;;;;;;;;;;;;;10.26;60.08;98846.28;4988200;28;19929;-84
2022/04/09 01:17:39;;;;;;;;;;;;;;;10.25;59.85;98834.00;4991408;28;19926;-84
2022/04/09 01:20:15;;;;;;;;;;;;;;;10.25;60.28;98832.22;5022538;28;19925;-83
2022/04/09 01:22:40;;;;;;;;;;;;;;;10.34;60.54;98831.13;4995737;28;19972;-83
2022/04/09 01:25:06;;;;;;;;;;;;;;;10.48;59.68;98825.47;5020090;28;20704;-84
2022/04/09 01:27:31;;;;;;;;;;;;;;;10.25;60.19;98824.31;4990063;28;19925;-83
2022/04/09 01:29:56;;;;;;;;;;;;;;;10.00;61.13;98832.88;5000334;28;19925;-83
2022/04/09 01:32:22;;;;;;;;;;;;;;;10.20;60.63;98826.22;4988236;28;20404;-83
2022/04/09 01:34:47;;;;;;;;;;;;;;;10.26;60.29;98831.31;4988269;28;20396;-83
2022/04/09 01:37:12;;;;;;;;;;;;;;;10.33;60.09;98819.72;5003802;28;19976;-84
2022/04/09 01:39:38;;;;;;;;;;;;;;;10.38;60.28;98822.25;4988084;28;19925;-83
2022/04/09 01:42:05;;;;;;;;;;;;;;;10.38;59.88;98816.97;5019726;28;20433;-83
2022/04/09 01:44:31;;;;;;;;;;;;;;;10.48;60.10;98823.69;5005282;28;19928;-84
2022/04/09 01:46:56;;;;;;;;;;;;;;;10.33;60.86;98825.00;5023340;28;19925;-84
2022/04/09 01:49:21;;;;;;;;;;;;;;;10.42;60.18;98823.00;4988934;28;19914;-83
2022/04/09 01:51:49;;;;;;;;;;;;;;;10.48;60.11;98822.84;4988014;28;20028;-82
2022/04/09 01:54:15;;;;;;;;;;;;;;;10.55;60.69;98827.00;4994279;28;19930;-82
2022/04/09 01:56:40;;;;;;;;;;;;;;;10.60;60.01;98824.22;4998590;28;19921;-82
2022/04/09 01:59:06;;;;;;;;;;;;;;;10.66;60.27;98826.69;4983660;28;20033;-84
2022/04/09 02:01:33;;;;;;;;;;;;;;;10.80;59.54;98836.84;4988154;28;19925;-84
2022/04/09 02:03:59;;;;;;;;;;;;;;;10.71;60.24;98822.16;4987682;28;19918;-85
2022/04/09 02:06:25;;;;;;;;;;;;;;;10.82;59.74;98829.75;4995863;28;19921;-83
2022/04/09 02:08:50;;;;;;;;;;;;;;;10.61;60.13;98832.09;4991096;28;20308;-83
2022/04/09 02:11:15;;;;;;;;;;;;;;;10.73;59.82;98825.63;5018791;28;19930;-83
2022/04/09 02:13:41;;;;;;;;;;;;;;;10.77;59.76;98822.00;4999269;28;19922;-83
2022/04/09 02:16:06;;;;;;;;;;;;;;;10.65;60.25;98819.72;5000952;28;19922;-83
2022/04/09 02:18:32;;;;;;;;;;;;;;;10.52;60.16;98827.13;4987471;28;20004;-83
2022/04/09 02:20:57;;;;;;;;;;;;;;;10.52;59.67;98821.84;4986821;28;19922;-84
2022/04/09 02:23:22;;;;;;;;;;;;;;;10.52;60.14;98814.78;4996603;28;19917;-83
2022/04/09 02:25:47;;;;;;;;;;;;;;;10.56;60.07;98818.19;4991908;28;19971;-84
2022/04/09 02:28:13;;;;;;;;;;;;;;;10.54;60.53;98817.38;5003900;28;19980;-83
2022/04/09 02:30:38;;;;;;;;;;;;;;;10.59;59.75;98810.19;5005995;28;20304;-84
2022/04/09 02:33:04;;;;;;;;;;;;;;;10.51;59.88;98807.78;4997323;28;19948;-83
2022/04/09 02:35:29;;;;;;;;;;;;;;;10.31;60.26;98808.31;4990875;28;19917;-83
2022/04/09 02:37:56;;;;;;;;;;;;;;;10.13;61.02;98808.81;5021510;28;19922;-83
2022/04/09 02:40:21;;;;;;;;;;;;;;;10.03;61.57;98819.63;4990731;28;19922;-83
2022/04/09 02:42:47;;;;;;;;;;;;;;;9.56;62.47;98823.47;4990360;28;19921;-83
2022/04/09 02:45:12;;;;;;;;;;;;;;;9.76;62.65;98825.59;4990506;28;19937;-83
2022/04/09 02:47:38;;;;;;;;;;;;;;;9.99;62.10;98828.53;5002398;28;20075;-84
2022/04/09 02:50:06;;;;;;;;;;;;;;;10.35;60.32;98822.31;5009393;28;19918;-83
2022/04/09 02:52:35;;;;;;;;;;;;;;;10.38;60.40;98817.81;5004535;28;19929;-83
2022/04/09 02:55:01;;;;;;;;;;;;;;;10.34;60.80;98818.81;5025369;28;19943;-83
2022/04/09 02:57:26;;;;;;;;;;;;;;;10.32;60.58;98815.31;5010425;28;19922;-83
2022/04/09 02:59:52;;;;;;;;;;;;;;;10.34;61.00;98818.81;4994170;28;20355;-82
2022/04/09 03:02:17;;;;;;;;;;;;;;;10.35;60.48;98814.41;4991497;28;20553;-82
2022/04/09 03:04:42;;;;;;;;;;;;;;;10.21;60.78;98810.34;4990690;28;20013;-82
2022/04/09 03:07:07;;;;;;;;;;;;;;;10.14;61.18;98810.56;5022236;28;20032;-84
2022/04/09 03:09:33;;;;;;;;;;;;;;;10.15;60.74;98813.16;5005621;28;20000;-82
2022/04/09 03:11:58;;;;;;;;;;;;;;;10.03;60.67;98821.38;4991338;28;20055;-82
2022/04/09 03:14:23;;;;;;;;;;;;;;;10.15;60.31;98810.53;4991037;28;19949;-83
2022/04/09 03:16:49;;;;;;;;;;;;;;;10.23;59.99;98809.47;4990571;28;19922;-84
2022/04/09 03:19:14;;;;;;;;;;;;;;;10.26;59.68;98812.00;4990680;28;19929;-84
2022/04/09 03:21:39;;;;;;;;;;;;;;;10.25;60.40;98812.91;4990055;28;19921;-83
2022/04/09 03:24:05;;;;;;;;;;;;;;;10.26;60.34;98814.63;5000113;28;19926;-84
2022/04/09 03:26:30;;;;;;;;;;;;;;;10.23;60.08;98812.94;4990094;28;19970;-83
2022/04/09 03:28:55;;;;;;;;;;;;;;;10.24;60.09;98803.25;4997209;28;20008;-83
2022/04/09 03:31:21;;;;;;;;;;;;;;;10.17;60.16;98805.22;5000180;28;20719;-83
2022/04/09 03:33:47;;;;;;;;;;;;;;;10.13;59.61;98812.34;5006243;28;19925;-82
2022/04/09 03:36:13;;;;;;;;;;;;;;;10.27;59.64;98808.44;5009962;28;19944;-83
2022/04/09 03:38:40;;;;;;;;;;;;;;;10.20;59.75;98811.25;5009736;28;19917;-83
2022/04/09 03:41:05;;;;;;;;;;;;;;;9.92;59.95;98812.91;4993226;28;20000;-83
2022/04/09 03:43:30;;;;;;;;;;;;;;;9.83;60.70;98814.88;4989705;28;20072;-83
2022/04/09 03:45:56;;;;;;;;;;;;;;;9.80;61.02;98807.03;5020040;28;19926;-82
2022/04/09 03:48:21;;;;;;;;;;;;;;;9.93;61.18;98799.69;4990017;28;19954;-82
2022/04/09 03:50:46;;;;;;;;;;;;;;;9.92;61.22;98800.59;5001213;28;19921;-82
2022/04/09 03:53:12;;;;;;;;;;;;;;;10.11;59.67;98792.19;5001161;28;19921;-82
2022/04/09 03:55:37;;;;;;;;;;;;;;;10.16;59.55;98807.00;5009291;28;19925;-82
2022/04/09 03:58:02;;;;;;;;;;;;;;;10.04;60.14;98805.53;5005702;28;20487;-83
2022/04/09 04:00:28;;;;;;;;;;;;;;;9.55;60.40;98813.84;5003460;28;19930;-82
2022/04/09 04:02:54;;;;;;;;;;;;;;;9.32;60.60;98808.22;4989832;28;19925;-82
2022/04/09 04:05:20;;;;;;;;;;;;;;;9.65;61.04;98789.00;4988521;28;19944;-83
2022/04/09 04:07:46;;;;;;;;;;;;;;;9.58;61.38;98800.63;4989541;28;20396;-82
2022/04/09 04:10:12;;;;;;;;;;;;;;;9.54;61.15;98805.06;4996918;28;19949;-83
2022/04/09 04:12:38;;;;;;;;;;;;;;;9.60;62.05;98806.69;5019969;28;20175;-84
2022/04/09 04:15:04;;;;;;;;;;;;;;;9.71;61.68;98804.66;5003660;28;19950;-83
2022/04/09 04:17:42;;;;;;;;;;;;;;;9.87;61.04;98802.50;4988408;28;19917;-83
2022/04/09 04:20:08;;;;;;;;;;;;;;;9.85;60.69;98806.94;5022176;28;19918;-83
2022/04/09 04:22:34;;;;;;;;;;;;;;;9.91;60.99;98803.28;5007615;28;19925;-83
2022/04/09 04:24:59;;;;;;;;;;;;;;;10.15;61.25;98814.94;5008177;28;19928;-82
2022/04/09 04:27:24;;;;;;;;;;;;;;;10.48;59.99;98814.91;4995260;28;20327;-83
2022/04/09 04:29:50;;;;;;;;;;;;;;;10.62;60.12;98819.81;4999328;28;19921;-83
2022/04/09 04:32:15;;;;;;;;;;;;;;;10.51;61.16;98822.75;4990676;28;19932;-82
2022/04/09 04:34:40;;;;;;;;;;;;;;;10.70;60.63;98821.28;5018960;28;19922;-82
2022/04/09 04:37:05;;;;;;;;;;;;;;;10.76;60.85;98822.88;4988105;28;19932;-83
2022/04/09 04:39:31;;;;;;;;;;;;;;;10.83;61.23;98823.56;4988890;28;19922;-83
2022/04/09 04:41:56;;;;;;;;;;;;;;;10.60;61.65;98818.97;5003006;28;19925;-82
2022/04/09 04:44:21;;;;;;;;;;;;;;;10.60;61.60;98814.56;4989588;28;19930;-83
2022/04/09 04:46:47;;;;;;;;;;;;;;;10.42;61.49;98812.47;4988136;28;19972;-83
2022/04/09 04:49:12;;;;;;;;;;;;;;;10.50;61.83;98821.91;5019909;28;20470;-82
2022/04/09 04:51:37;;;;;;;;;;;;;;;10.79;60.89;98822.78;4992040;28;19965;-82
2022/04/09 04:54:03;;;;;;;;;;;;;;;10.77;61.27;98827.25;4988491;28;19941;-84
2022/04/09 04:56:29;;;;;;;;;;;;;;;10.92;60.49;98825.91;4988920;28;20016;-84
2022/04/09 04:58:54;;;;;;;;;;;;;;;11.17;59.67;98815.50;4988482;28;20423;-83
2022/04/09 05:01:20;;;;;;;;;;;;;;;11.05;59.12;98808.81;5020127;28;20328;-83
2022/04/09 05:03:45;;;;;;;;;;;;;;;10.82;60.33;98820.06;5020179;28;19922;-83
2022/04/09 05:06:10;;;;;;;;;;;;;;;10.70;60.62;98817.78;4988311;28;20008;-82
2022/04/09 05:08:36;;;;;;;;;;;;;;;10.78;60.77;98817.56;4987808;28;19925;-83
2022/04/09 05:11:01;;;;;;;;;;;;;;;10.96;60.53;98810.88;4999580;28;19926;-83
2022/04/09 05:13:26;;;;;;;;;;;;;;;11.09;60.14;98817.50;5008263;28;19917;-83
2022/04/09 05:15:52;;;;;;;;;;;;;;;11.07;60.70;98814.03;5003625;28;19926;-83
2022/04/09 05:18:17;;;;;;;;;;;;;;;10.98;61.55;98809.91;4988388;28;20312;-83
2022/04/09 05:20:42;;;;;;;;;;;;;;;11.09;61.62;98813.09;4996705;28;19929;-83
2022/04/09 05:23:08;;;;;;;;;;;;;;;11.24;61.41;98811.72;5007646;28;20318;-83
2022/04/09 05:25:33;;;;;;;;;;;;;;;11.07;61.65;98806.13;5006110;28;19936;-83
2022/04/09 05:28:06;;;;;;;;;;;;;;;11.12;61.47;98809.47;4990509;28;19934;-84
2022/04/09 05:30:33;;;;;;;;;;;;;;;11.19;61.61;98797.81;4999214;28;20331;-82
2022/04/09 05:32:59;;;;;;;;;;;;;;;11.36;61.42;98802.56;4988126;28;19922;-82
2022/04/09 05:35:24;;;;;;;;;;;;;;;11.37;60.94;98795.50;5006878;28;19930;-84
2022/04/09 05:37:51;;;;;;;;;;;;;;;11.35;61.27;98794.69;4987454;28;19929;-82
2022/04/09 05:40:17;;;;;;;;;;;;;;;11.31;61.86;98795.69;4987730;28;19922;-83
2022/04/09 05:42:42;;;;;;;;;;;;;;;11.41;61.76;98799.78;4987887;28;19918;-84
2022/04/09 05:45:08;;;;;;;;;;;;;;;11.66;61.47;98797.16;4987502;28;19976;-87
2022/04/09 05:47:33;;;;;;;;;;;;;;;11.88;60.92;98799.06;4988229;28;19929;-85
2022/04/09 05:49:59;;;;;;;;;;;;;;;12.43;59.79;98801.56;4986873;28;20452;-83
2022/04/09 05:52:24;;;;;;;;;;;;;;;12.88;58.50;98792.81;4987848;28;19922;-84
2022/04/09 05:54:50;;;;;;;;;;;;;;;13.35;57.15;98795.41;4992145;28;19926;-82
2022/04/09 05:57:16;;;;;;;;;;;;;;;13.77;56.00;98791.88;5007541;28;19921;-81
2022/04/09 05:59:41;;;;;;;;;;;;;;;14.13;54.65;98790.38;4997487;28;19930;-81
2022/04/09 06:02:07;;;;;;;;;;;;;;;14.73;53.88;98790.34;5006633;28;19921;-81
2022/04/09 06:04:32;;;;;;;;;;;;;;;15.08;52.86;98794.97;4999775;28;20392;-81
2022/04/09 06:06:57;;;;;;;;;;;;;;;15.37;51.28;98788.25;5001117;28;19922;-80
2022/04/09 06:09:23;;;;;;;;;;;;;;;15.80;51.44;98778.16;4990343;28;19918;-82
2022/04/09 06:11:48;;;;;;;;;;;;;;;15.90;50.23;98779.38;4979976;28;19922;-80
2022/04/09 06:14:15;;;;;;;;;;;;;;;16.06;51.47;98770.59;4987915;28;19988;-81
2022/04/09 06:16:41;;;;;;;;;;;;;;;16.35;49.95;98776.19;4992841;28;19944;-81
2022/04/09 06:19:07;;;;;;;;;;;;;;;16.56;49.05;98764.41;4991175;28;20396;-80
2022/04/09 06:21:33;;;;;;;;;;;;;;;16.85;49.08;98767.25;4990525;28;20016;-80
2022/04/09 06:23:59;;;;;;;;;;;;;;;17.25;47.64;98762.38;5005710;28;20314;-81
2022/04/09 06:26:24;;;;;;;;;;;;;;;17.59;47.91;98762.22;5012347;28;20017;-81
2022/04/09 06:28:51;;;;;;;;;;;;;;;17.72;47.79;98755.22;5022456;28;20384;-81
2022/04/09 06:31:16;;;;;;;;;;;;;;;18.08;45.84;98754.84;4991351;28;19922;-82
2022/04/09 06:33:42;;;;;;;;;;;;;;;18.27;45.86;98753.72;4992205;28;19929;-82
2022/04/09 06:36:07;;;;;;;;;;;;;;;18.36;45.77;98745.13;4996245;28;19925;-82
2022/04/09 06:38:33;;;;;;;;;;;;;;;18.47;45.18;98749.81;4980437;28;19956;-82
2022/04/09 06:40:59;;;;;;;;;;;;;;;18.65;44.91;98754.97;5001099;28;19984;-82
2022/04/09 06:43:25;;;;;;;;;;;;;;;18.39;44.86;98747.63;5009276;28;19925;-82
2022/04/09 06:45:50;;;;;;;;;;;;;;;18.56;45.11;98749.22;4996408;28;20304;-83
2022/04/09 06:48:16;;;;;;;;;;;;;;;18.76;46.99;98745.28;4990678;28;19921;-82
2022/04/09 06:50:42;;;;;;;;;;;;;;;18.48;45.99;98751.53;4990878;28;20020;-83
2022/04/09 06:53:07;;;;;;;;;;;;;;;18.08;47.96;98749.50;4990651;28;20028;-83
2022/04/09 06:55:32;;;;;;;;;;;;;;;18.45;46.75;98756.22;4991123;28;20396;-83
2022/04/09 06:58:01;;;;;;;;;;;;;;;18.12;46.19;98752.88;4991170;28;19921;-83
2022/04/09 07:00:27;;;;;;;;;;;;;;;18.23;46.06;98747.72;4990504;28;19921;-83
2022/04/09 07:02:52;;;;;;;;;;;;;;;18.20;44.35;98755.91;4990726;28;19918;-83
2022/04/09 07:05:18;;;;;;;;;;;;;;;18.40;44.63;98754.69;5022139;28;20297;-83
2022/04/09 07:07:46;;;;;;;;;;;;;;;18.68;44.57;98752.09;4990098;28;19961;-83
2022/04/09 07:10:11;;;;;;;;;;;;;;;18.92;43.40;98755.03;4989776;28;19956;-84
2022/04/09 07:12:37;;;;;;;;;;;;;;;19.07;42.95;98759.38;5005480;28;19956;-84
2022/04/09 07:15:03;;;;;;;;;;;;;;;19.33;42.08;98751.50;4990378;28;19917;-83
2022/04/09 07:17:29;;;;;;;;;;;;;;;19.30;42.80;98747.19;4990496;28;20352;-85
2022/04/09 07:19:58;;;;;;;;;;;;;;;19.02;42.29;98752.66;4989328;28;20008;-82
2022/04/09 07:22:24;;;;;;;;;;;;;;;19.19;42.70;98756.91;5004945;28;19928;-81
2022/04/09 07:24:49;;;;;;;;;;;;;;;19.06;42.06;98760.38;4989465;28;19922;-82
2022/04/09 07:27:15;;;;;;;;;;;;;;;19.41;42.34;98748.31;4990327;28;19941;-82
2022/04/09 07:29:40;;;;;;;;;;;;;;;19.55;41.62;98750.91;4990386;28;19929;-82
2022/04/09 07:32:05;;;;;;;;;;;;;;;19.05;42.27;98757.78;4990072;28;19929;-82
2022/04/09 07:34:31;;;;;;;;;;;;;;;19.31;42.86;98748.06;4990195;28;19913;-82
2022/04/09 07:36:56;;;;;;;;;;;;;;;19.62;40.99;98754.91;4989965;28;20420;-82
2022/04/09 07:39:21;;;;;;;;;;;;;;;20.12;41.05;98759.59;5004775;28;20399;-83
2022/04/09 07:41:47;;;;;;;;;;;;;;;20.30;41.38;98762.84;4993491;28;20040;-81
2022/04/09 07:44:13;;;;;;;;;;;;;;;20.53;39.48;98761.22;4989638;28;19968;-82
2022/04/09 07:46:38;;;;;;;;;;;;;;;20.95;38.99;98758.28;5006240;28;19921;-83
2022/04/09 07:49:04;;;;;;;;;;;;;;;21.19;37.89;98756.44;4999143;28;19947;-83
2022/04/09 07:51:29;;;;;;;;;;;;;;;20.81;38.47;98751.25;4989257;28;21433;-83
2022/04/09 07:53:54;;;;;;;;;;;;;;;20.80;37.81;98746.84;4989580;28;19932;-82
2022/04/09 07:56:20;;;;;;;;;;;;;;;21.35;38.80;98736.53;4990318;28;19946;-82
2022/04/09 07:58:45;;;;;;;;;;;;;;;21.59;37.04;98736.56;4990042;28;19921;-83
2022/04/09 08:01:10;;;;;;;;;;;;;;;21.71;37.23;98737.47;4989711;28;19926;-82
2022/04/09 08:03:36;;;;;;;;;;;;;;;21.72;36.70;98736.47;4989515;28;19941;-83
2022/04/09 08:06:01;;;;;;;;;;;;;;;21.73;36.66;98730.16;4989764;28;19976;-82
2022/04/09 08:08:26;;;;;;;;;;;;;;;21.87;35.42;98724.56;5020949;28;19933;-83
2022/04/09 08:10:52;;;;;;;;;;;;;;;21.91;33.71;98722.50;4989420;28;19918;-83
2022/04/09 08:13:18;;;;;;;;;;;;;;;21.87;34.94;98727.25;4989474;28;19918;-82
2022/04/09 08:15:43;;;;;;;;;;;;;;;22.01;35.84;98718.13;4989251;28;19925;-82
2022/04/09 08:18:10;;;;;;;;;;;;;;;22.46;36.40;98718.22;4989167;28;19952;-82
2022/04/09 08:20:36;;;;;;;;;;;;;;;22.38;34.34;98711.72;4988922;28;20527;-84
2022/04/09 08:23:01;;;;;;;;;;;;;;;22.62;35.06;98711.63;4988899;28;19913;-83
2022/04/09 08:25:27;;;;;;;;;;;;;;;22.67;34.15;98712.09;4988087;28;19940;-83
2022/04/09 08:27:53;;;;;;;;;;;;;;;22.59;35.06;98710.00;4989062;28;20016;-83
2022/04/09 08:30:19;;;;;;;;;;;;;;;22.08;35.60;98697.88;4988831;28;19926;-83
2022/04/09 08:32:45;;;;;;;;;;;;;;;22.23;35.97;98703.00;5003241;28;20343;-83
2022/04/09 08:35:11;;;;;;;;;;;;;;;22.55;35.19;98695.09;4989233;28;19927;-83
2022/04/09 08:37:36;;;;;;;;;;;;;;;23.06;34.61;98696.34;4988207;28;19932;-83
2022/04/09 08:40:02;;;;;;;;;;;;;;;23.13;33.46;98688.69;4979729;28;19925;-83
2022/04/09 08:42:28;;;;;;;;;;;;;;;23.13;34.59;98689.53;4973551;28;19973;-83
2022/04/09 08:44:53;;;;;;;;;;;;;;;23.47;34.11;98686.72;4976150;28;20047;-84
2022/04/09 08:47:19;;;;;;;;;;;;;;;23.44;34.15;98683.44;5010612;28;20441;-83
2022/04/09 08:49:45;;;;;;;;;;;;;;;23.37;34.06;98675.00;4967785;28;20494;-81
2022/04/09 08:52:11;;;;;;;;;;;;;;;23.56;33.58;98682.38;4969512;28;19929;-82
2022/04/09 08:54:37;;;;;;;;;;;;;;;23.85;34.96;98670.97;4980718;28;19922;-82
2022/04/09 08:57:02;;;;;;;;;;;;;;;24.09;32.81;98671.53;4988429;28;19938;-82
2022/04/09 08:59:28;;;;;;;;;;;;;;;23.78;32.81;98673.31;4987579;28;19922;-82
2022/04/09 09:01:53;;;;;;;;;;;;;;;23.28;33.64;98667.69;4988446;28;19981;-83
2022/04/09 09:04:18;;;;;;;;;;;;;;;23.51;33.44;98668.44;4988299;28;19922;-83
2022/04/09 09:06:45;;;;;;;;;;;;;;;23.31;32.39;98667.44;4988868;28;20431;-83
2022/04/09 09:09:24;;;;;;;;;;;;;;;23.50;33.35;98674.84;4987445;28;19932;-83
2022/04/09 09:11:50;;;;;;;;;;;;;;;23.49;33.60;98668.59;4987798;28;19922;-83
2022/04/09 09:14:25;;;;;;;;;;;;;;;23.25;33.32;98671.53;4979064;28;19933;-85
2022/04/09 09:16:51;;;;;;;;;;;;;;;22.94;34.14;98652.53;4973105;28;20373;-83
2022/04/09 09:19:17;;;;;;;;;;;;;;;22.96;33.04;98664.00;4975568;28;20332;-83
2022/04/09 09:21:53;;;;;;;;;;;;;;;22.97;34.43;98651.41;4988276;28;19928;-82
2022/04/09 09:24:18;;;;;;;;;;;;;;;23.16;34.52;98648.94;4986558;28;20684;-83
2022/04/09 09:26:46;;;;;;;;;;;;;;;23.16;34.29;98646.25;4988010;28;19929;-83
2022/04/09 09:29:22;;;;;;;;;;;;;;;22.90;34.27;98632.25;4987401;28;19926;-83
2022/04/09 09:31:50;;;;;;;;;;;;;;;22.95;33.45;98638.09;4987220;28;19918;-84
2022/04/09 09:34:18;;;;;;;;;;;;;;;22.91;33.60;98630.41;4987560;28;19929;-83
2022/04/09 09:36:44;;;;;;;;;;;;;;;23.01;33.45;98634.88;4987298;28;20001;-83
2022/04/09 09:39:10;;;;;;;;;;;;;;;23.24;32.86;98627.59;4987534;28;19984;-83
2022/04/09 09:41:46;;;;;;;;;;;;;;;23.43;33.19;98623.34;4979474;28;20067;-83
2022/04/09 09:44:12;;;;;;;;;;;;;;;23.58;33.82;98627.44;4981822;28;19928;-83
2022/04/09 09:46:37;;;;;;;;;;;;;;;23.95;32.44;98623.44;4980304;28;19922;-83
2022/04/09 09:49:03;;;;;;;;;;;;;;;24.16;31.00;98623.38;4980742;28;19922;-83
2022/04/09 09:51:28;;;;;;;;;;;;;;;23.96;31.07;98619.75;4996318;28;19922;-82
2022/04/09 09:54:07;;;;;;;;;;;;;;;24.22;32.44;98611.19;5009395;28;19921;-83
2022/04/09 09:56:36;;;;;;;;;;;;;;;24.36;30.72;98600.06;4991945;28;20454;-83
2022/04/09 09:59:03;;;;;;;;;;;;;;;24.33;32.34;98602.16;4972843;28;19926;-83
2022/04/09 10:01:28;;;;;;;;;;;;;;;23.93;30.17;98599.31;4974170;28;19918;-83
2022/04/09 10:03:54;;;;;;;;;;;;;;;23.50;31.45;98594.09;4972484;28;19933;-82
2022/04/09 10:06:21;;;;;;;;;;;;;;;23.67;30.21;98590.78;4972133;28;19997;-82
2022/04/09 10:08:47;;;;;;;;;;;;;;;23.72;31.21;98593.94;4986686;28;19992;-83
2022/04/09 10:11:12;;;;;;;;;;;;;;;23.91;29.99;98584.28;4991778;28;19918;-82
2022/04/09 10:13:43;;;;;;;;;;;;;;;23.55;31.43;98581.94;4986143;28;20333;-82
2022/04/09 10:16:10;;;;;;;;;;;;;;;23.60;32.32;98581.53;4991964;28;20293;-82
2022/04/09 10:18:35;;;;;;;;;;;;;;;23.53;31.70;98577.69;4990738;28;19921;-82
2022/04/09 10:21:01;;;;;;;;;;;;;;;23.42;32.72;98573.25;4991919;28;19922;-83
2022/04/09 10:23:29;;;;;;;;;;;;;;;23.38;31.89;98575.31;4991495;28;20300;-82
2022/04/09 10:25:55;;;;;;;;;;;;;;;23.53;31.75;98573.16;4991486;28;19926;-83
2022/04/09 10:28:34;;;;;;;;;;;;;;;23.77;31.22;98562.09;4991317;28;19949;-82
2022/04/09 10:31:00;;;;;;;;;;;;;;;23.77;31.31;98559.41;4991402;28;19922;-82
2022/04/09 10:33:28;;;;;;;;;;;;;;;24.03;31.19;98555.41;4991305;28;19922;-82
2022/04/09 10:36:00;;;;;;;;;;;;;;;24.35;31.61;98552.53;4991078;28;19933;-82
2022/04/09 10:38:26;;;;;;;;;;;;;;;24.38;31.99;98541.47;4991708;28;20040;-82
2022/04/09 10:40:57;;;;;;;;;;;;;;;24.26;31.33;98542.59;5010529;28;20086;-83
2022/04/09 10:43:22;;;;;;;;;;;;;;;24.29;31.16;98531.53;4991027;28;19925;-82
2022/04/09 10:46:06;;;;;;;;;;;;;;;24.57;30.92;98526.31;4990633;28;19922;-82
2022/04/09 10:48:36;;;;;;;;;;;;;;;24.39;30.52;98518.94;5021761;28;19984;-83
2022/04/09 10:51:04;;;;;;;;;;;;;;;24.24;30.42;98518.47;5004649;28;20013;-83
2022/04/09 10:53:30;;;;;;;;;;;;;;;24.32;31.64;98504.31;4997477;28;19922;-83
2022/04/09 10:56:21;;;;;;;;;;;;;;;24.51;31.12;98498.09;4987888;28;19917;-82
2022/04/09 10:59:06;;;;;;;;;;;;;;;24.79;30.98;98498.25;4988161;28;20436;-82
2022/04/09 11:01:48;;;;;;;;;;;;;;;25.08;30.87;98498.22;4991757;28;19956;-82
2022/04/09 11:07:12;;;;;;;;;;;;;;;25.13;30.35;98492.41;4990545;28;19922;-82
2022/04/09 11:09:40;;;;;;;;;;;;;;;24.84;29.56;98496.00;4990736;28;19918;-81
2022/04/09 11:12:05;;;;;;;;;;;;;;;25.17;29.88;98485.72;5006488;28;19957;-82
2022/04/09 11:14:40;;;;;;;;;;;;;;;25.69;28.83;98483.47;4994611;28;19922;-82
2022/04/09 11:17:18;;;;;;;;;;;;;;;25.77;28.90;98488.13;4991063;28;19976;-81
2022/04/09 11:19:44;;;;;;;;;;;;;;;25.49;29.24;98488.09;4992047;28;19929;-82
2022/04/09 11:22:10;;;;;;;;;;;;;;;25.66;28.98;98486.44;5009719;28;19921;-82
2022/04/09 11:24:36;;;;;;;;;;;;;;;25.56;28.83;98485.63;5009632;28;19932;-83
2022/04/09 11:27:01;;;;;;;;;;;;;;;25.59;29.97;98484.50;5009184;28;19925;-83
2022/04/09 11:29:31;;;;;;;;;;;;;;;25.50;29.60;98483.53;5007845;28;20411;-82
2022/04/09 11:31:56;;;;;;;;;;;;;;;25.64;29.34;98485.75;5008014;28;19921;-84
2022/04/09 11:34:22;;;;;;;;;;;;;;;25.92;28.76;98489.31;5018984;28;19921;-82
2022/04/09 11:36:51;;;;;;;;;;;;;;;26.12;28.33;98478.44;5023068;28;19925;-81
2022/04/09 11:39:17;;;;;;;;;;;;;;;26.25;27.99;98478.91;4996616;28;19926;-82
2022/04/09 11:41:46;;;;;;;;;;;;;;;25.97;27.55;98469.97;4988768;28;19929;-83
2022/04/09 11:44:25;;;;;;;;;;;;;;;26.03;27.71;98469.38;4989029;28;19922;-82
2022/04/09 11:46:50;;;;;;;;;;;;;;;25.99;27.92;98467.97;4989542;28;21969;-82
2022/04/09 11:49:18;;;;;;;;;;;;;;;26.34;26.88;98460.94;4989508;28;19929;-82
2022/04/09 11:51:52;;;;;;;;;;;;;;;26.55;29.30;98457.06;4989743;28;19929;-82
2022/04/09 11:54:17;;;;;;;;;;;;;;;26.60;27.40;98454.72;4990093;28;19941;-83
2022/04/09 11:56:43;;;;;;;;;;;;;;;26.41;28.25;98447.63;4990326;28;20431;-82
2022/04/09 11:59:15;;;;;;;;;;;;;;;26.69;27.08;98445.72;4989285;28;19945;-83
2022/04/09 12:01:45;;;;;;;;;;;;;;;26.40;27.04;98443.22;4989538;28;19922;-82
2022/04/09 12:04:10;;;;;;;;;;;;;;;26.31;28.59;98446.88;4989711;28;19917;-82
2022/04/09 12:06:36;;;;;;;;;;;;;;;26.59;27.16;98442.22;4989420;28;19928;-82
2022/04/09 12:09:02;;;;;;;;;;;;;;;26.52;27.54;98433.88;4989551;28;19921;-82
2022/04/09 12:11:27;;;;;;;;;;;;;;;26.77;26.12;98428.69;4989092;28;19921;-82
2022/04/09 12:13:52;;;;;;;;;;;;;;;26.59;26.59;98428.72;4989580;28;19921;-82
2022/04/09 12:16:19;;;;;;;;;;;;;;;26.75;26.78;98426.16;4989420;28;19918;-82
2022/04/09 12:18:44;;;;;;;;;;;;;;;26.75;26.71;98419.91;4988983;28;19926;-83
2022/04/09 12:21:20;;;;;;;;;;;;;;;26.98;27.64;98404.84;4989343;28;19941;-81
2022/04/09 12:23:46;;;;;;;;;;;;;;;27.31;26.28;98415.91;4989190;28;19929;-82
2022/04/09 12:26:24;;;;;;;;;;;;;;;27.05;26.04;98420.44;5021145;28;19927;-82
2022/04/09 12:29:11;;;;;;;;;;;;;;;27.20;27.14;98409.88;4989314;28;20045;-82
2022/04/09 12:31:36;;;;;;;;;;;;;;;26.97;26.86;98405.00;4989498;28;19918;-81
2022/04/09 12:34:02;;;;;;;;;;;;;;;26.97;28.01;98397.75;4989502;28;19928;-82
2022/04/09 12:36:27;;;;;;;;;;;;;;;26.93;26.46;98390.97;4988880;28;19917;-83
2022/04/09 12:38:53;;;;;;;;;;;;;;;26.78;26.65;98393.38;4988779;28;20055;-81
2022/04/09 12:41:18;;;;;;;;;;;;;;;26.33;26.89;98383.53;4989160;28;19922;-83
2022/04/09 12:43:43;;;;;;;;;;;;;;;26.63;27.48;98381.41;4988261;28;19925;-82
2022/04/09 12:46:13;;;;;;;;;;;;;;;26.83;25.70;98379.38;4988914;28;19918;-82
2022/04/09 12:48:38;;;;;;;;;;;;;;;26.91;26.25;98376.75;5019837;28;20434;-83
2022/04/09 12:51:04;;;;;;;;;;;;;;;26.89;25.96;98376.03;4983959;28;19926;-83